sensor_id;sensor_type;location;lat;lon;timestamp;P1;durP1;ratioP1;P2;durP2;ratioP2
23716;SDS011;22094;52.130;5.598;2023-05-23T00:02:16;23.75;;;12.88;;
23716;SDS011;22094;52.130;5.598;2023-05-23T00:04:42;23.88;;;13.32;;
23716;SDS011;22094;52.130;5.598;2023-05-23T00:07:08;21.08;;;13.05;;
23716;SDS011;22094;52.130;5.598;2023-05-23T00:09:34;25.40;;;13.88;;
23716;SDS011;22094;52.130;5.598;2023-05-23T00:12:00;24.20;;;13.73;;
23716;SDS011;22094;52.130;5.598;2023-05-23T00:14:26;27.35;;;14.00;;
23716;SDS011;22094;52.130;5.598;2023-05-23T00:16:51;28.08;;;14.20;;
23716;SDS011;22094;52.130;5.598;2023-05-23T00:19:17;23.45;;;13.82;;
23716;SDS011;22094;52.130;5.598;2023-05-23T00:21:44;25.40;;;14.43;;
23716;SDS011;22094;52.130;5.598;2023-05-23T00:24:16;27.95;;;14.68;;
23716;SDS011;22094;52.130;5.598;2023-05-23T00:26:42;24.98;;;14.45;;
23716;SDS011;22094;52.130;5.598;2023-05-23T00:29:08;23.88;;;14.32;;
23716;SDS011;22094;52.130;5.598;2023-05-23T00:31:39;25.83;;;14.82;;
23716;SDS011;22094;52.130;5.598;2023-05-23T00:34:05;23.42;;;14.30;;
23716;SDS011;22094;52.130;5.598;2023-05-23T00:36:30;25.15;;;14.68;;
23716;SDS011;22094;52.130;5.598;2023-05-23T00:39:01;25.25;;;15.02;;
23716;SDS011;22094;52.130;5.598;2023-05-23T00:41:29;29.48;;;14.18;;
23716;SDS011;22094;52.130;5.598;2023-05-23T00:43:55;26.33;;;13.45;;
23716;SDS011;22094;52.130;5.598;2023-05-23T00:46:23;21.17;;;13.30;;
23716;SDS011;22094;52.130;5.598;2023-05-23T00:48:53;24.73;;;14.05;;
23716;SDS011;22094;52.130;5.598;2023-05-23T00:51:19;25.35;;;14.18;;
23716;SDS011;22094;52.130;5.598;2023-05-23T00:53:45;26.98;;;13.45;;
23716;SDS011;22094;52.130;5.598;2023-05-23T00:56:11;24.73;;;13.32;;
23716;SDS011;22094;52.130;5.598;2023-05-23T00:58:37;24.25;;;13.60;;
23716;SDS011;22094;52.130;5.598;2023-05-23T01:01:04;23.35;;;13.50;;
23716;SDS011;22094;52.130;5.598;2023-05-23T01:03:30;19.70;;;12.57;;
23716;SDS011;22094;52.130;5.598;2023-05-23T01:05:56;21.40;;;12.95;;
23716;SDS011;22094;52.130;5.598;2023-05-23T01:08:22;19.63;;;12.07;;
23716;SDS011;22094;52.130;5.598;2023-05-23T01:10:47;16.83;;;11.93;;
23716;SDS011;22094;52.130;5.598;2023-05-23T01:13:27;18.83;;;11.90;;
23716;SDS011;22094;52.130;5.598;2023-05-23T01:16:22;18.23;;;11.55;;
23716;SDS011;22094;52.130;5.598;2023-05-23T01:19:16;20.52;;;11.93;;
23716;SDS011;22094;52.130;5.598;2023-05-23T01:22:02;17.95;;;11.43;;
23716;SDS011;22094;52.130;5.598;2023-05-23T01:24:48;19.63;;;10.98;;
23716;SDS011;22094;52.130;5.598;2023-05-23T01:27:22;20.50;;;11.27;;
23716;SDS011;22094;52.130;5.598;2023-05-23T01:30:06;16.80;;;10.88;;
23716;SDS011;22094;52.130;5.598;2023-05-23T01:32:34;15.48;;;10.77;;
23716;SDS011;22094;52.130;5.598;2023-05-23T01:35:02;19.20;;;11.30;;
23716;SDS011;22094;52.130;5.598;2023-05-23T01:37:29;18.17;;;11.18;;
23716;SDS011;22094;52.130;5.598;2023-05-23T01:39:55;16.75;;;11.02;;
23716;SDS011;22094;52.130;5.598;2023-05-23T01:42:20;16.70;;;11.13;;
23716;SDS011;22094;52.130;5.598;2023-05-23T01:44:46;16.80;;;10.63;;
23716;SDS011;22094;52.130;5.598;2023-05-23T01:47:12;17.55;;;11.02;;
23716;SDS011;22094;52.130;5.598;2023-05-23T01:49:39;17.50;;;11.60;;
23716;SDS011;22094;52.130;5.598;2023-05-23T01:52:08;16.63;;;11.45;;
23716;SDS011;22094;52.130;5.598;2023-05-23T01:54:35;19.58;;;11.23;;
23716;SDS011;22094;52.130;5.598;2023-05-23T01:57:02;18.35;;;11.15;;
23716;SDS011;22094;52.130;5.598;2023-05-23T01:59:28;21.20;;;11.23;;
23716;SDS011;22094;52.130;5.598;2023-05-23T02:01:53;18.95;;;11.55;;
23716;SDS011;22094;52.130;5.598;2023-05-23T02:04:20;22.30;;;11.32;;
23716;SDS011;22094;52.130;5.598;2023-05-23T02:06:46;23.05;;;12.40;;
23716;SDS011;22094;52.130;5.598;2023-05-23T02:09:11;25.35;;;13.43;;
23716;SDS011;22094;52.130;5.598;2023-05-23T02:11:37;24.58;;;12.88;;
23716;SDS011;22094;52.130;5.598;2023-05-23T02:14:03;23.05;;;11.88;;
23716;SDS011;22094;52.130;5.598;2023-05-23T02:16:28;25.73;;;13.52;;
23716;SDS011;22094;52.130;5.598;2023-05-23T02:18:54;28.50;;;12.23;;
23716;SDS011;22094;52.130;5.598;2023-05-23T02:21:22;23.17;;;11.20;;
23716;SDS011;22094;52.130;5.598;2023-05-23T02:23:48;24.80;;;12.15;;
23716;SDS011;22094;52.130;5.598;2023-05-23T02:26:13;20.80;;;10.57;;
23716;SDS011;22094;52.130;5.598;2023-05-23T02:28:40;19.75;;;10.75;;
23716;SDS011;22094;52.130;5.598;2023-05-23T02:31:05;21.70;;;10.93;;
23716;SDS011;22094;52.130;5.598;2023-05-23T02:33:31;20.00;;;10.40;;
23716;SDS011;22094;52.130;5.598;2023-05-23T02:35:57;17.67;;;9.75;;
23716;SDS011;22094;52.130;5.598;2023-05-23T02:38:22;12.30;;;8.70;;
23716;SDS011;22094;52.130;5.598;2023-05-23T02:40:48;14.18;;;8.40;;
23716;SDS011;22094;52.130;5.598;2023-05-23T02:43:15;14.82;;;9.13;;
23716;SDS011;22094;52.130;5.598;2023-05-23T02:45:41;13.13;;;8.05;;
23716;SDS011;22094;52.130;5.598;2023-05-23T02:48:06;12.32;;;8.15;;
23716;SDS011;22094;52.130;5.598;2023-05-23T02:50:32;14.60;;;8.55;;
23716;SDS011;22094;52.130;5.598;2023-05-23T02:52:58;14.27;;;8.45;;
23716;SDS011;22094;52.130;5.598;2023-05-23T02:55:23;15.80;;;8.50;;
23716;SDS011;22094;52.130;5.598;2023-05-23T02:57:49;15.70;;;8.77;;
23716;SDS011;22094;52.130;5.598;2023-05-23T03:00:15;16.70;;;8.85;;
23716;SDS011;22094;52.130;5.598;2023-05-23T03:02:41;14.45;;;8.05;;
23716;SDS011;22094;52.130;5.598;2023-05-23T03:05:07;13.10;;;7.88;;
23716;SDS011;22094;52.130;5.598;2023-05-23T03:07:33;13.27;;;8.27;;
23716;SDS011;22094;52.130;5.598;2023-05-23T03:09:59;12.52;;;8.27;;
23716;SDS011;22094;52.130;5.598;2023-05-23T03:12:26;16.38;;;9.13;;
23716;SDS011;22094;52.130;5.598;2023-05-23T03:14:52;13.00;;;8.20;;
23716;SDS011;22094;52.130;5.598;2023-05-23T03:17:17;13.02;;;8.75;;
23716;SDS011;22094;52.130;5.598;2023-05-23T03:19:43;14.77;;;9.00;;
23716;SDS011;22094;52.130;5.598;2023-05-23T03:22:08;15.35;;;8.85;;
23716;SDS011;22094;52.130;5.598;2023-05-23T03:24:34;18.35;;;8.93;;
23716;SDS011;22094;52.130;5.598;2023-05-23T03:27:00;15.43;;;9.48;;
23716;SDS011;22094;52.130;5.598;2023-05-23T03:29:25;19.02;;;8.38;;
23716;SDS011;22094;52.130;5.598;2023-05-23T03:31:51;15.98;;;8.88;;
23716;SDS011;22094;52.130;5.598;2023-05-23T03:34:17;20.25;;;9.40;;
23716;SDS011;22094;52.130;5.598;2023-05-23T03:36:42;19.33;;;8.85;;
23716;SDS011;22094;52.130;5.598;2023-05-23T03:39:08;18.38;;;9.75;;
23716;SDS011;22094;52.130;5.598;2023-05-23T03:41:33;23.58;;;9.90;;
23716;SDS011;22094;52.130;5.598;2023-05-23T03:43:59;24.55;;;10.02;;
23716;SDS011;22094;52.130;5.598;2023-05-23T03:46:25;26.55;;;10.52;;
23716;SDS011;22094;52.130;5.598;2023-05-23T03:48:50;28.00;;;11.38;;
23716;SDS011;22094;52.130;5.598;2023-05-23T03:51:16;20.50;;;10.32;;
23716;SDS011;22094;52.130;5.598;2023-05-23T03:53:41;25.35;;;11.15;;
23716;SDS011;22094;52.130;5.598;2023-05-23T03:56:07;27.13;;;11.07;;
23716;SDS011;22094;52.130;5.598;2023-05-23T03:58:33;25.08;;;10.13;;
23716;SDS011;22094;52.130;5.598;2023-05-23T04:00:58;28.63;;;12.23;;
23716;SDS011;22094;52.130;5.598;2023-05-23T04:03:25;27.52;;;11.10;;
23716;SDS011;22094;52.130;5.598;2023-05-23T04:05:51;30.25;;;11.60;;
23716;SDS011;22094;52.130;5.598;2023-05-23T04:08:17;28.25;;;11.63;;
23716;SDS011;22094;52.130;5.598;2023-05-23T04:10:46;24.77;;;10.75;;
23716;SDS011;22094;52.130;5.598;2023-05-23T04:13:11;33.08;;;12.00;;
23716;SDS011;22094;52.130;5.598;2023-05-23T04:15:37;29.10;;;11.07;;
23716;SDS011;22094;52.130;5.598;2023-05-23T04:18:03;26.85;;;11.05;;
23716;SDS011;22094;52.130;5.598;2023-05-23T04:20:32;26.77;;;11.10;;
23716;SDS011;22094;52.130;5.598;2023-05-23T04:22:57;24.27;;;10.77;;
23716;SDS011;22094;52.130;5.598;2023-05-23T04:25:23;20.48;;;9.52;;
23716;SDS011;22094;52.130;5.598;2023-05-23T04:27:48;27.52;;;10.18;;
23716;SDS011;22094;52.130;5.598;2023-05-23T04:30:14;48.05;;;10.82;;
23716;SDS011;22094;52.130;5.598;2023-05-23T04:32:41;23.85;;;9.63;;
23716;SDS011;22094;52.130;5.598;2023-05-23T04:35:07;23.30;;;9.65;;
23716;SDS011;22094;52.130;5.598;2023-05-23T04:37:34;19.08;;;8.73;;
23716;SDS011;22094;52.130;5.598;2023-05-23T04:40:01;20.63;;;8.90;;
23716;SDS011;22094;52.130;5.598;2023-05-23T04:42:28;25.17;;;9.07;;
23716;SDS011;22094;52.130;5.598;2023-05-23T04:44:54;29.95;;;9.45;;
23716;SDS011;22094;52.130;5.598;2023-05-23T04:47:22;24.83;;;9.45;;
23716;SDS011;22094;52.130;5.598;2023-05-23T04:49:52;24.33;;;8.70;;
23716;SDS011;22094;52.130;5.598;2023-05-23T04:52:19;22.85;;;8.38;;
23716;SDS011;22094;52.130;5.598;2023-05-23T04:54:44;21.45;;;8.18;;
23716;SDS011;22094;52.130;5.598;2023-05-23T04:57:10;22.55;;;7.25;;
23716;SDS011;22094;52.130;5.598;2023-05-23T04:59:37;20.15;;;7.05;;
23716;SDS011;22094;52.130;5.598;2023-05-23T05:02:02;16.33;;;6.72;;
23716;SDS011;22094;52.130;5.598;2023-05-23T05:04:29;24.42;;;6.60;;
23716;SDS011;22094;52.130;5.598;2023-05-23T05:06:55;14.65;;;6.03;;
23716;SDS011;22094;52.130;5.598;2023-05-23T05:09:21;17.70;;;6.45;;
23716;SDS011;22094;52.130;5.598;2023-05-23T05:11:47;19.67;;;6.53;;
23716;SDS011;22094;52.130;5.598;2023-05-23T05:14:12;21.33;;;6.68;;
23716;SDS011;22094;52.130;5.598;2023-05-23T05:16:38;19.73;;;5.97;;
23716;SDS011;22094;52.130;5.598;2023-05-23T05:19:03;18.52;;;6.95;;
23716;SDS011;22094;52.130;5.598;2023-05-23T05:21:29;17.42;;;6.40;;
23716;SDS011;22094;52.130;5.598;2023-05-23T05:23:55;13.57;;;5.72;;
23716;SDS011;22094;52.130;5.598;2023-05-23T05:26:21;14.43;;;5.63;;
23716;SDS011;22094;52.130;5.598;2023-05-23T05:28:47;15.98;;;6.30;;
23716;SDS011;22094;52.130;5.598;2023-05-23T05:31:13;24.27;;;7.25;;
23716;SDS011;22094;52.130;5.598;2023-05-23T05:33:39;13.07;;;5.97;;
23716;SDS011;22094;52.130;5.598;2023-05-23T05:36:05;15.27;;;5.88;;
23716;SDS011;22094;52.130;5.598;2023-05-23T05:38:32;14.70;;;5.72;;
23716;SDS011;22094;52.130;5.598;2023-05-23T05:40:57;12.88;;;5.28;;
23716;SDS011;22094;52.130;5.598;2023-05-23T05:43:24;16.20;;;5.90;;
23716;SDS011;22094;52.130;5.598;2023-05-23T05:45:50;14.80;;;5.35;;
23716;SDS011;22094;52.130;5.598;2023-05-23T05:48:15;22.13;;;5.55;;
23716;SDS011;22094;52.130;5.598;2023-05-23T05:50:41;14.50;;;5.75;;
23716;SDS011;22094;52.130;5.598;2023-05-23T05:53:09;16.38;;;6.15;;
23716;SDS011;22094;52.130;5.598;2023-05-23T05:55:35;15.05;;;5.18;;
23716;SDS011;22094;52.130;5.598;2023-05-23T05:58:01;14.20;;;5.40;;
23716;SDS011;22094;52.130;5.598;2023-05-23T06:00:27;13.77;;;6.13;;
23716;SDS011;22094;52.130;5.598;2023-05-23T06:02:52;16.40;;;6.18;;
23716;SDS011;22094;52.130;5.598;2023-05-23T06:05:21;15.57;;;5.30;;
23716;SDS011;22094;52.130;5.598;2023-05-23T06:07:47;16.15;;;5.65;;
23716;SDS011;22094;52.130;5.598;2023-05-23T06:10:13;15.10;;;6.68;;
23716;SDS011;22094;52.130;5.598;2023-05-23T06:12:39;17.08;;;6.90;;
23716;SDS011;22094;52.130;5.598;2023-05-23T06:15:05;15.18;;;6.35;;
23716;SDS011;22094;52.130;5.598;2023-05-23T06:17:31;14.27;;;6.03;;
23716;SDS011;22094;52.130;5.598;2023-05-23T06:19:57;14.23;;;6.43;;
23716;SDS011;22094;52.130;5.598;2023-05-23T06:22:23;15.85;;;6.70;;
23716;SDS011;22094;52.130;5.598;2023-05-23T06:24:48;20.45;;;7.30;;
23716;SDS011;22094;52.130;5.598;2023-05-23T06:27:14;16.67;;;7.15;;
23716;SDS011;22094;52.130;5.598;2023-05-23T06:29:40;18.02;;;6.97;;
23716;SDS011;22094;52.130;5.598;2023-05-23T06:32:06;23.73;;;7.05;;
23716;SDS011;22094;52.130;5.598;2023-05-23T06:34:31;18.45;;;7.13;;
23716;SDS011;22094;52.130;5.598;2023-05-23T06:36:57;21.70;;;7.47;;
23716;SDS011;22094;52.130;5.598;2023-05-23T06:39:23;13.98;;;6.32;;
23716;SDS011;22094;52.130;5.598;2023-05-23T06:41:48;18.27;;;6.80;;
23716;SDS011;22094;52.130;5.598;2023-05-23T06:44:15;14.90;;;6.22;;
23716;SDS011;22094;52.130;5.598;2023-05-23T06:46:44;20.92;;;6.85;;
23716;SDS011;22094;52.130;5.598;2023-05-23T06:49:10;21.80;;;6.70;;
23716;SDS011;22094;52.130;5.598;2023-05-23T06:51:36;16.08;;;6.03;;
23716;SDS011;22094;52.130;5.598;2023-05-23T06:54:02;16.35;;;6.28;;
23716;SDS011;22094;52.130;5.598;2023-05-23T06:56:28;15.70;;;6.53;;
23716;SDS011;22094;52.130;5.598;2023-05-23T06:58:53;22.05;;;7.75;;
23716;SDS011;22094;52.130;5.598;2023-05-23T07:01:19;19.75;;;7.05;;
23716;SDS011;22094;52.130;5.598;2023-05-23T07:03:45;12.23;;;5.93;;
23716;SDS011;22094;52.130;5.598;2023-05-23T07:06:10;14.65;;;6.45;;
23716;SDS011;22094;52.130;5.598;2023-05-23T07:08:37;13.65;;;6.18;;
23716;SDS011;22094;52.130;5.598;2023-05-23T07:11:03;17.10;;;5.68;;
23716;SDS011;22094;52.130;5.598;2023-05-23T07:13:28;10.90;;;5.07;;
23716;SDS011;22094;52.130;5.598;2023-05-23T07:15:55;12.32;;;5.80;;
23716;SDS011;22094;52.130;5.598;2023-05-23T07:18:20;12.13;;;4.78;;
23716;SDS011;22094;52.130;5.598;2023-05-23T07:20:47;12.13;;;4.85;;
23716;SDS011;22094;52.130;5.598;2023-05-23T07:23:12;10.40;;;4.07;;
23716;SDS011;22094;52.130;5.598;2023-05-23T07:25:38;11.57;;;4.30;;
23716;SDS011;22094;52.130;5.598;2023-05-23T07:28:06;12.50;;;3.95;;
23716;SDS011;22094;52.130;5.598;2023-05-23T07:30:32;9.35;;;3.40;;
23716;SDS011;22094;52.130;5.598;2023-05-23T07:32:57;15.93;;;3.80;;
23716;SDS011;22094;52.130;5.598;2023-05-23T07:35:23;16.00;;;3.63;;
23716;SDS011;22094;52.130;5.598;2023-05-23T07:37:53;8.35;;;3.35;;
23716;SDS011;22094;52.130;5.598;2023-05-23T07:40:20;21.50;;;3.85;;
23716;SDS011;22094;52.130;5.598;2023-05-23T07:42:46;20.42;;;4.10;;
23716;SDS011;22094;52.130;5.598;2023-05-23T07:45:11;14.45;;;2.63;;
23716;SDS011;22094;52.130;5.598;2023-05-23T07:47:38;12.38;;;2.88;;
23716;SDS011;22094;52.130;5.598;2023-05-23T07:50:03;10.23;;;2.85;;
23716;SDS011;22094;52.130;5.598;2023-05-23T07:52:30;15.75;;;3.15;;
23716;SDS011;22094;52.130;5.598;2023-05-23T07:54:56;18.77;;;3.53;;
23716;SDS011;22094;52.130;5.598;2023-05-23T07:57:22;42.58;;;4.90;;
23716;SDS011;22094;52.130;5.598;2023-05-23T07:59:51;18.10;;;3.53;;
23716;SDS011;22094;52.130;5.598;2023-05-23T08:02:18;13.68;;;3.30;;
23716;SDS011;22094;52.130;5.598;2023-05-23T08:04:44;18.27;;;4.32;;
23716;SDS011;22094;52.130;5.598;2023-05-23T08:07:10;15.00;;;3.50;;
23716;SDS011;22094;52.130;5.598;2023-05-23T08:09:37;28.75;;;4.03;;
23716;SDS011;22094;52.130;5.598;2023-05-23T08:12:04;12.02;;;3.20;;
23716;SDS011;22094;52.130;5.598;2023-05-23T08:14:30;19.45;;;3.65;;
23716;SDS011;22094;52.130;5.598;2023-05-23T08:16:55;17.90;;;3.10;;
23716;SDS011;22094;52.130;5.598;2023-05-23T08:19:21;20.00;;;3.38;;
23716;SDS011;22094;52.130;5.598;2023-05-23T08:21:47;18.85;;;3.53;;
23716;SDS011;22094;52.130;5.598;2023-05-23T08:24:13;16.40;;;3.00;;
23716;SDS011;22094;52.130;5.598;2023-05-23T08:26:39;19.08;;;3.40;;
23716;SDS011;22094;52.130;5.598;2023-05-23T08:29:06;21.95;;;4.07;;
23716;SDS011;22094;52.130;5.598;2023-05-23T08:31:34;13.88;;;3.25;;
23716;SDS011;22094;52.130;5.598;2023-05-23T08:33:59;17.45;;;3.47;;
23716;SDS011;22094;52.130;5.598;2023-05-23T08:36:25;21.48;;;3.80;;
23716;SDS011;22094;52.130;5.598;2023-05-23T08:38:51;31.83;;;4.55;;
23716;SDS011;22094;52.130;5.598;2023-05-23T08:41:18;14.82;;;3.50;;
23716;SDS011;22094;52.130;5.598;2023-05-23T08:43:44;16.25;;;3.80;;
23716;SDS011;22094;52.130;5.598;2023-05-23T08:46:11;13.07;;;3.83;;
23716;SDS011;22094;52.130;5.598;2023-05-23T08:48:38;13.73;;;3.38;;
23716;SDS011;22094;52.130;5.598;2023-05-23T08:51:04;17.73;;;3.40;;
23716;SDS011;22094;52.130;5.598;2023-05-23T08:53:32;27.58;;;4.13;;
23716;SDS011;22094;52.130;5.598;2023-05-23T08:56:01;22.10;;;4.22;;
23716;SDS011;22094;52.130;5.598;2023-05-23T08:58:30;12.07;;;3.00;;
23716;SDS011;22094;52.130;5.598;2023-05-23T09:00:58;16.98;;;3.30;;
23716;SDS011;22094;52.130;5.598;2023-05-23T09:03:27;18.52;;;4.05;;
23716;SDS011;22094;52.130;5.598;2023-05-23T09:05:54;16.52;;;3.40;;
23716;SDS011;22094;52.130;5.598;2023-05-23T09:08:20;23.08;;;3.47;;
23716;SDS011;22094;52.130;5.598;2023-05-23T09:10:47;24.63;;;3.70;;
23716;SDS011;22094;52.130;5.598;2023-05-23T09:13:17;16.83;;;3.70;;
23716;SDS011;22094;52.130;5.598;2023-05-23T09:18:34;11.55;;;3.08;;
23716;SDS011;22094;52.130;5.598;2023-05-23T09:21:01;13.32;;;3.67;;
23716;SDS011;22094;52.130;5.598;2023-05-23T09:23:33;21.30;;;3.78;;
23716;SDS011;22094;52.130;5.598;2023-05-23T09:26:07;14.68;;;3.45;;
23716;SDS011;22094;52.130;5.598;2023-05-23T09:28:37;14.73;;;3.33;;
23716;SDS011;22094;52.130;5.598;2023-05-23T09:31:04;17.02;;;3.47;;
23716;SDS011;22094;52.130;5.598;2023-05-23T09:33:38;15.50;;;3.65;;
23716;SDS011;22094;52.130;5.598;2023-05-23T09:36:05;14.40;;;3.58;;
23716;SDS011;22094;52.130;5.598;2023-05-23T09:38:31;16.75;;;3.83;;
23716;SDS011;22094;52.130;5.598;2023-05-23T09:41:02;16.95;;;3.25;;
23716;SDS011;22094;52.130;5.598;2023-05-23T09:43:28;14.63;;;3.40;;
23716;SDS011;22094;52.130;5.598;2023-05-23T09:45:54;18.73;;;4.05;;
23716;SDS011;22094;52.130;5.598;2023-05-23T09:48:26;24.38;;;4.03;;
23716;SDS011;22094;52.130;5.598;2023-05-23T09:50:54;16.27;;;3.40;;
23716;SDS011;22094;52.130;5.598;2023-05-23T09:53:19;20.33;;;3.72;;
23716;SDS011;22094;52.130;5.598;2023-05-23T09:55:47;47.67;;;5.90;;
23716;SDS011;22094;52.130;5.598;2023-05-23T09:58:18;27.35;;;4.72;;
23716;SDS011;22094;52.130;5.598;2023-05-23T10:00:47;20.83;;;3.20;;
23716;SDS011;22094;52.130;5.598;2023-05-23T10:03:17;23.13;;;4.00;;
23716;SDS011;22094;52.130;5.598;2023-05-23T10:05:48;15.82;;;3.33;;
23716;SDS011;22094;52.130;5.598;2023-05-23T10:08:20;13.68;;;3.33;;
23716;SDS011;22094;52.130;5.598;2023-05-23T10:13:24;19.05;;;4.05;;
23716;SDS011;22094;52.130;5.598;2023-05-23T10:15:51;11.90;;;3.15;;
23716;SDS011;22094;52.130;5.598;2023-05-23T10:18:40;16.95;;;3.58;;
23716;SDS011;22094;52.130;5.598;2023-05-23T10:21:11;14.45;;;3.30;;
23716;SDS011;22094;52.130;5.598;2023-05-23T10:23:39;15.13;;;3.25;;
23716;SDS011;22094;52.130;5.598;2023-05-23T10:26:06;20.77;;;3.97;;
23716;SDS011;22094;52.130;5.598;2023-05-23T10:28:32;15.35;;;3.75;;
23716;SDS011;22094;52.130;5.598;2023-05-23T10:30:58;20.25;;;4.57;;
23716;SDS011;22094;52.130;5.598;2023-05-23T10:33:25;18.52;;;4.00;;
23716;SDS011;22094;52.130;5.598;2023-05-23T10:35:55;20.20;;;4.32;;
23716;SDS011;22094;52.130;5.598;2023-05-23T10:38:45;13.98;;;3.25;;
23716;SDS011;22094;52.130;5.598;2023-05-23T10:41:26;11.18;;;3.13;;
23716;SDS011;22094;52.130;5.598;2023-05-23T10:44:14;9.77;;;3.33;;
23716;SDS011;22094;52.130;5.598;2023-05-23T10:46:51;20.88;;;3.92;;
23716;SDS011;22094;52.130;5.598;2023-05-23T10:49:19;13.32;;;3.67;;
23716;SDS011;22094;52.130;5.598;2023-05-23T10:51:48;14.52;;;3.58;;
23716;SDS011;22094;52.130;5.598;2023-05-23T10:54:18;15.75;;;3.78;;
23716;SDS011;22094;52.130;5.598;2023-05-23T10:56:44;13.35;;;3.15;;
23716;SDS011;22094;52.130;5.598;2023-05-23T10:59:18;14.07;;;3.67;;
23716;SDS011;22094;52.130;5.598;2023-05-23T11:01:48;13.55;;;3.10;;
23716;SDS011;22094;52.130;5.598;2023-05-23T11:04:15;11.35;;;3.15;;
23716;SDS011;22094;52.130;5.598;2023-05-23T11:06:50;12.40;;;3.22;;
23716;SDS011;22094;52.130;5.598;2023-05-23T11:09:17;16.98;;;3.50;;
23716;SDS011;22094;52.130;5.598;2023-05-23T11:16:58;44.80;;;5.15;;
23716;SDS011;22094;52.130;5.598;2023-05-23T11:19:25;17.95;;;3.55;;
23716;SDS011;22094;52.130;5.598;2023-05-23T11:21:59;10.13;;;3.40;;
23716;SDS011;22094;52.130;5.598;2023-05-23T11:27:29;20.38;;;3.92;;
23716;SDS011;22094;52.130;5.598;2023-05-23T11:30:03;11.43;;;3.00;;
23716;SDS011;22094;52.130;5.598;2023-05-23T11:32:37;21.02;;;3.08;;
23716;SDS011;22094;52.130;5.598;2023-05-23T11:35:06;12.80;;;2.97;;
23716;SDS011;22094;52.130;5.598;2023-05-23T11:37:33;9.38;;;2.70;;
23716;SDS011;22094;52.130;5.598;2023-05-23T11:39:59;10.90;;;2.72;;
23716;SDS011;22094;52.130;5.598;2023-05-23T11:42:45;10.90;;;2.60;;
23716;SDS011;22094;52.130;5.598;2023-05-23T11:45:12;11.68;;;2.72;;
23716;SDS011;22094;52.130;5.598;2023-05-23T11:47:41;11.20;;;2.42;;
23716;SDS011;22094;52.130;5.598;2023-05-23T11:50:06;8.20;;;2.20;;
23716;SDS011;22094;52.130;5.598;2023-05-23T11:52:32;9.07;;;2.28;;
23716;SDS011;22094;52.130;5.598;2023-05-23T11:54:59;14.05;;;2.78;;
23716;SDS011;22094;52.130;5.598;2023-05-23T11:57:25;11.38;;;3.13;;
23716;SDS011;22094;52.130;5.598;2023-05-23T11:59:51;13.63;;;3.40;;
23716;SDS011;22094;52.130;5.598;2023-05-23T12:02:17;10.77;;;2.80;;
23716;SDS011;22094;52.130;5.598;2023-05-23T12:04:43;12.18;;;3.08;;
23716;SDS011;22094;52.130;5.598;2023-05-23T12:07:09;11.93;;;3.20;;
23716;SDS011;22094;52.130;5.598;2023-05-23T12:09:42;20.55;;;3.85;;
23716;SDS011;22094;52.130;5.598;2023-05-23T12:12:09;15.70;;;3.47;;
23716;SDS011;22094;52.130;5.598;2023-05-23T12:14:34;18.48;;;3.42;;
23716;SDS011;22094;52.130;5.598;2023-05-23T12:17:02;22.52;;;4.35;;
23716;SDS011;22094;52.130;5.598;2023-05-23T12:19:28;11.65;;;2.92;;
23716;SDS011;22094;52.130;5.598;2023-05-23T12:21:54;19.95;;;3.10;;
23716;SDS011;22094;52.130;5.598;2023-05-23T12:24:23;9.40;;;2.70;;
23716;SDS011;22094;52.130;5.598;2023-05-23T12:26:50;12.73;;;2.60;;
23716;SDS011;22094;52.130;5.598;2023-05-23T12:29:20;7.32;;;2.58;;
23716;SDS011;22094;52.130;5.598;2023-05-23T12:31:52;9.25;;;2.88;;
23716;SDS011;22094;52.130;5.598;2023-05-23T12:34:18;11.07;;;2.80;;
23716;SDS011;22094;52.130;5.598;2023-05-23T12:36:45;13.50;;;2.85;;
23716;SDS011;22094;52.130;5.598;2023-05-23T12:39:13;9.50;;;2.72;;
23716;SDS011;22094;52.130;5.598;2023-05-23T12:41:43;37.28;;;3.95;;
23716;SDS011;22094;52.130;5.598;2023-05-23T12:44:09;19.38;;;3.53;;
23716;SDS011;22094;52.130;5.598;2023-05-23T12:46:35;18.10;;;3.65;;
23716;SDS011;22094;52.130;5.598;2023-05-23T12:49:01;15.13;;;3.08;;
23716;SDS011;22094;52.130;5.598;2023-05-23T12:51:27;14.68;;;3.22;;
23716;SDS011;22094;52.130;5.598;2023-05-23T12:53:52;9.82;;;2.97;;
23716;SDS011;22094;52.130;5.598;2023-05-23T12:56:19;10.13;;;2.70;;
23716;SDS011;22094;52.130;5.598;2023-05-23T12:58:46;11.95;;;2.65;;
23716;SDS011;22094;52.130;5.598;2023-05-23T13:01:12;9.95;;;2.90;;
23716;SDS011;22094;52.130;5.598;2023-05-23T13:03:38;8.63;;;2.78;;
23716;SDS011;22094;52.130;5.598;2023-05-23T13:06:04;14.18;;;3.03;;
23716;SDS011;22094;52.130;5.598;2023-05-23T13:08:30;15.77;;;2.70;;
23716;SDS011;22094;52.130;5.598;2023-05-23T13:10:56;13.52;;;3.15;;
23716;SDS011;22094;52.130;5.598;2023-05-23T13:13:22;12.35;;;3.00;;
23716;SDS011;22094;52.130;5.598;2023-05-23T13:15:48;20.33;;;3.28;;
23716;SDS011;22094;52.130;5.598;2023-05-23T13:18:14;8.90;;;2.58;;
23716;SDS011;22094;52.130;5.598;2023-05-23T13:20:39;9.00;;;2.50;;
23716;SDS011;22094;52.130;5.598;2023-05-23T13:23:06;8.70;;;2.45;;
23716;SDS011;22094;52.130;5.598;2023-05-23T13:25:33;8.68;;;2.30;;
23716;SDS011;22094;52.130;5.598;2023-05-23T13:27:59;11.63;;;3.03;;
23716;SDS011;22094;52.130;5.598;2023-05-23T13:30:25;8.88;;;2.13;;
23716;SDS011;22094;52.130;5.598;2023-05-23T13:32:51;7.95;;;2.47;;
23716;SDS011;22094;52.130;5.598;2023-05-23T13:35:17;13.27;;;2.70;;
23716;SDS011;22094;52.130;5.598;2023-05-23T13:37:43;9.00;;;2.47;;
23716;SDS011;22094;52.130;5.598;2023-05-23T13:40:15;14.57;;;3.35;;
23716;SDS011;22094;52.130;5.598;2023-05-23T13:42:42;10.95;;;2.85;;
23716;SDS011;22094;52.130;5.598;2023-05-23T13:45:08;10.30;;;3.03;;
23716;SDS011;22094;52.130;5.598;2023-05-23T13:47:34;13.98;;;3.13;;
23716;SDS011;22094;52.130;5.598;2023-05-23T13:50:01;12.23;;;2.72;;
23716;SDS011;22094;52.130;5.598;2023-05-23T13:52:28;13.82;;;2.95;;
23716;SDS011;22094;52.130;5.598;2023-05-23T13:54:53;28.30;;;3.95;;
23716;SDS011;22094;52.130;5.598;2023-05-23T13:57:19;13.48;;;3.40;;
23716;SDS011;22094;52.130;5.598;2023-05-23T13:59:45;17.05;;;3.15;;
23716;SDS011;22094;52.130;5.598;2023-05-23T14:02:11;8.80;;;2.78;;
23716;SDS011;22094;52.130;5.598;2023-05-23T14:04:36;13.45;;;3.33;;
23716;SDS011;22094;52.130;5.598;2023-05-23T14:07:02;12.70;;;2.80;;
23716;SDS011;22094;52.130;5.598;2023-05-23T14:09:28;13.98;;;3.40;;
23716;SDS011;22094;52.130;5.598;2023-05-23T14:11:53;11.60;;;2.53;;
23716;SDS011;22094;52.130;5.598;2023-05-23T14:14:19;12.20;;;2.70;;
23716;SDS011;22094;52.130;5.598;2023-05-23T14:16:45;10.73;;;2.90;;
23716;SDS011;22094;52.130;5.598;2023-05-23T14:19:11;12.65;;;2.45;;
23716;SDS011;22094;52.130;5.598;2023-05-23T14:21:37;7.57;;;2.35;;
23716;SDS011;22094;52.130;5.598;2023-05-23T14:24:02;12.40;;;2.92;;
23716;SDS011;22094;52.130;5.598;2023-05-23T14:26:28;8.68;;;2.45;;
23716;SDS011;22094;52.130;5.598;2023-05-23T14:28:54;10.38;;;2.50;;
23716;SDS011;22094;52.130;5.598;2023-05-23T14:31:20;8.00;;;2.33;;
23716;SDS011;22094;52.130;5.598;2023-05-23T14:33:46;9.73;;;2.88;;
23716;SDS011;22094;52.130;5.598;2023-05-23T14:36:13;13.00;;;2.78;;
23716;SDS011;22094;52.130;5.598;2023-05-23T14:38:39;14.40;;;2.88;;
23716;SDS011;22094;52.130;5.598;2023-05-23T14:41:05;8.93;;;2.58;;
23716;SDS011;22094;52.130;5.598;2023-05-23T14:43:31;9.45;;;2.40;;
23716;SDS011;22094;52.130;5.598;2023-05-23T14:45:56;21.05;;;3.55;;
23716;SDS011;22094;52.130;5.598;2023-05-23T14:48:22;8.02;;;2.58;;